createdAt,value
2018-06-08T00:01:15.903Z,20.20
2018-06-08T00:03:45.558Z,20.10
2018-06-08T00:06:15.058Z,20.10
2018-06-08T00:08:48.568Z,20.10
2018-06-08T00:11:16.762Z,20.00
2018-06-08T00:16:14.146Z,20.00
2018-06-08T00:18:42.743Z,20.00
2018-06-08T00:23:40.198Z,19.90
2018-06-08T00:26:09.890Z,19.90
2018-06-08T00:28:38.877Z,20.00
2018-06-08T00:31:08.157Z,20.10
2018-06-08T00:33:36.291Z,20.10
2018-06-08T00:36:06.299Z,20.10
2018-06-08T00:38:35.467Z,20.10
2018-06-08T00:41:05.593Z,20.20
2018-06-08T00:43:39.108Z,20.30
2018-06-08T00:46:09.073Z,20.30
2018-06-08T00:48:37.829Z,20.40
2018-06-08T00:51:07.778Z,20.40
2018-06-08T00:53:37.860Z,20.40
2018-06-08T00:58:36.065Z,20.40
2018-06-08T01:01:06.357Z,20.50
2018-06-08T01:03:34.346Z,20.50
2018-06-08T01:06:03.165Z,20.60
2018-06-08T01:08:32.640Z,20.60
2018-06-08T01:11:04.326Z,20.60
2018-06-08T01:13:33.112Z,20.70
2018-06-08T01:16:02.354Z,20.50
2018-06-08T01:18:31.275Z,20.50
2018-06-08T01:21:00.137Z,20.50
2018-06-08T01:23:28.799Z,20.40
2018-06-08T01:25:57.490Z,20.30
2018-06-08T01:30:55.503Z,20.10
2018-06-08T01:33:24.146Z,20.10
2018-06-08T01:35:52.197Z,20.20
2018-06-08T01:40:51.367Z,20.10
2018-06-08T01:43:21.334Z,20.00
2018-06-08T01:45:53.206Z,20.00
2018-06-08T01:50:50.703Z,19.80
2018-06-08T01:53:21.571Z,19.70
2018-06-08T01:58:22.545Z,19.80
2018-06-08T02:00:52.176Z,19.80
2018-06-08T02:03:21.303Z,19.70
2018-06-08T02:05:51.731Z,19.60
2018-06-08T02:10:50.027Z,19.60
2018-06-08T02:13:21.140Z,19.70
2018-06-08T02:15:51.470Z,19.70
2018-06-08T02:20:54.068Z,19.80
2018-06-08T02:23:24.357Z,19.80
2018-06-08T02:28:22.609Z,19.80
2018-06-08T02:30:52.925Z,19.80
2018-06-08T02:33:23.142Z,19.80
2018-06-08T02:35:52.115Z,19.90
2018-06-08T02:38:21.745Z,19.90
2018-06-08T02:40:51.790Z,20.00
2018-06-08T02:43:20.525Z,20.00
2018-06-08T02:45:49.283Z,20.00
2018-06-08T02:48:18.643Z,20.10
2018-06-08T02:53:17.611Z,20.20
2018-06-08T02:55:46.714Z,20.20
2018-06-08T02:58:15.676Z,20.20
2018-06-08T03:00:49.605Z,20.20
2018-06-08T03:08:14.690Z,20.20
2018-06-08T03:10:45.937Z,20.30
2018-06-08T03:13:17.031Z,20.30
2018-06-08T03:15:46.827Z,20.30
2018-06-08T03:18:16.961Z,20.30
2018-06-08T03:20:47.242Z,20.30
2018-06-08T03:23:17.436Z,20.30
2018-06-08T03:25:47.074Z,20.40
2018-06-08T03:28:17.695Z,20.30
2018-06-08T03:30:51.613Z,20.20
2018-06-08T03:33:25.283Z,20.20
2018-06-08T03:35:54.551Z,20.20
2018-06-08T03:38:23.783Z,20.20
2018-06-08T03:40:54.104Z,20.30
2018-06-08T03:43:24.531Z,20.20
2018-06-08T03:45:54.380Z,20.10
2018-06-08T03:48:24.459Z,20.30
2018-06-08T03:55:54.613Z,20.30
2018-06-08T04:00:54.098Z,20.30
2018-06-08T04:03:24.002Z,20.30
2018-06-08T04:05:54.475Z,20.30
2018-06-08T04:08:25.626Z,20.30
2018-06-08T04:10:57.298Z,20.30
2018-06-08T04:13:27.868Z,20.20
2018-06-08T04:15:58.651Z,20.30
2018-06-08T04:18:28.799Z,20.30
2018-06-08T04:25:58.379Z,20.20
2018-06-08T04:28:27.974Z,20.30
2018-06-08T04:30:57.809Z,20.30
2018-06-08T04:35:57.780Z,20.20
2018-06-08T04:38:28.441Z,20.10
2018-06-08T04:43:26.838Z,20.30
2018-06-08T04:45:56.125Z,20.40
2018-06-08T04:48:25.929Z,20.40
2018-06-08T04:50:56.336Z,20.40
2018-06-08T04:53:27.550Z,20.40
2018-06-08T04:55:57.745Z,20.40
2018-06-08T04:58:27.364Z,20.30
2018-06-08T05:00:58.731Z,20.40
2018-06-08T05:03:31.419Z,20.40
2018-06-08T05:06:01.790Z,20.30
2018-06-08T05:11:00.428Z,20.30
2018-06-08T05:13:31.232Z,20.30
2018-06-08T05:15:59.465Z,20.30
2018-06-08T05:18:31.551Z,20.40
2018-06-08T05:21:00.764Z,20.30
2018-06-08T05:23:31.055Z,20.30
2018-06-08T05:31:00.188Z,20.30
2018-06-08T05:33:30.428Z,20.30
2018-06-08T05:36:02.783Z,20.30
2018-06-08T05:38:30.898Z,20.30
2018-06-08T05:41:00.255Z,20.30
2018-06-08T05:45:57.180Z,20.40
2018-06-08T05:48:26.760Z,20.50
2018-06-08T05:50:55.081Z,20.50
2018-06-08T05:53:24.388Z,20.60
2018-06-08T05:55:52.442Z,20.60
2018-06-08T05:58:21.211Z,20.70
2018-06-08T06:00:50.241Z,20.60
2018-06-08T06:03:20.634Z,20.50
2018-06-08T06:05:51.491Z,20.50
2018-06-08T06:08:19.563Z,20.50
2018-06-08T06:10:48.742Z,20.60
2018-06-08T06:13:17.090Z,20.50
2018-06-08T06:15:45.783Z,20.50
2018-06-08T06:18:14.082Z,20.50
2018-06-08T06:20:42.892Z,20.50
2018-06-08T06:23:12.210Z,20.50
2018-06-08T06:25:41.851Z,20.40
2018-06-08T06:28:13.186Z,20.30
2018-06-08T06:30:42.136Z,20.30
2018-06-08T06:33:11.736Z,20.40
2018-06-08T06:35:40.553Z,20.40
2018-06-08T06:38:11.967Z,20.50
2018-06-08T06:40:40.622Z,20.50
2018-06-08T06:43:09.887Z,20.50
2018-06-08T06:48:09.608Z,20.60
2018-06-08T06:53:07.482Z,20.70
2018-06-08T06:58:05.207Z,20.60
2018-06-08T07:00:34.796Z,20.60
2018-06-08T07:03:03.525Z,20.70
2018-06-08T07:05:31.732Z,20.80
2018-06-08T07:08:00.583Z,20.60
2018-06-08T07:10:29.244Z,20.70
2018-06-08T07:12:58.064Z,20.60
2018-06-08T07:15:27.692Z,20.60
2018-06-08T07:17:55.620Z,20.60
2018-06-08T07:20:23.626Z,20.60
2018-06-08T07:22:52.793Z,20.60
2018-06-08T07:25:22.094Z,20.70
2018-06-08T07:27:51.325Z,20.70
2018-06-08T07:30:21.138Z,20.70
2018-06-08T07:32:49.180Z,20.70
2018-06-08T07:35:17.272Z,20.70
2018-06-08T07:40:13.869Z,20.80
2018-06-08T07:42:42.586Z,20.80
2018-06-08T07:45:11.082Z,20.80
2018-06-08T07:47:39.128Z,20.80
2018-06-08T07:50:07.778Z,20.80
2018-06-08T07:52:36.474Z,20.80
2018-06-08T07:55:05.949Z,20.80
2018-06-08T07:57:34.702Z,20.90
2018-06-08T08:00:03.400Z,20.90
2018-06-08T08:02:32.101Z,20.90
2018-06-08T08:05:00.008Z,21.10
2018-06-08T08:07:31.295Z,21.20
2018-06-08T08:09:59.704Z,21.20
2018-06-08T08:12:27.613Z,21.20
2018-06-08T08:17:23.428Z,21.20
2018-06-08T08:19:51.974Z,21.30
2018-06-08T08:22:19.910Z,21.30
2018-06-08T08:29:43.493Z,21.40
2018-06-08T08:34:39.784Z,21.30
2018-06-08T08:37:07.793Z,21.30
2018-06-08T08:39:35.787Z,21.30
2018-06-08T08:44:31.689Z,21.50
2018-06-08T08:46:59.579Z,21.60
2018-06-08T08:51:55.884Z,21.70
2018-06-08T08:54:24.022Z,21.70
2018-06-08T08:59:19.729Z,21.60
2018-06-08T09:01:47.990Z,21.70
2018-06-08T09:04:15.900Z,21.80
2018-06-08T09:09:11.942Z,21.80
2018-06-08T09:16:35.327Z,22.00
2018-06-08T09:21:30.988Z,22.10
2018-06-08T09:23:59.122Z,22.10
2018-06-08T09:26:27.416Z,22.10
2018-06-08T09:33:51.516Z,22.30
2018-06-08T09:36:19.685Z,22.30
2018-06-08T09:38:47.608Z,22.40
2018-06-08T09:41:15.555Z,22.40
2018-06-08T09:43:43.774Z,22.40
2018-06-08T09:46:11.713Z,22.50
2018-06-08T09:48:39.593Z,22.50
2018-06-08T09:51:08.195Z,22.50
2018-06-08T09:53:36.124Z,22.60
2018-06-08T09:56:04.043Z,22.50
2018-06-08T09:58:31.917Z,22.60
2018-06-08T10:00:59.879Z,22.80
2018-06-08T10:03:27.766Z,22.80
2018-06-08T10:08:23.543Z,23.00
2018-06-08T10:10:51.590Z,23.00
2018-06-08T10:13:19.487Z,22.90
2018-06-08T10:15:47.364Z,23.00
2018-06-08T10:18:15.858Z,23.00
2018-06-08T10:20:44.195Z,23.10
2018-06-08T10:23:12.346Z,23.10
2018-06-08T10:28:08.013Z,23.00
2018-06-08T10:30:35.985Z,23.00
2018-06-08T10:33:05.511Z,23.00
2018-06-08T10:35:33.532Z,23.00
2018-06-08T10:38:01.559Z,23.10
2018-06-08T10:40:29.790Z,23.10
2018-06-08T10:42:57.938Z,23.20
2018-06-08T10:45:25.865Z,23.10
2018-06-08T10:47:53.770Z,23.20
2018-06-08T10:50:21.672Z,23.30
2018-06-08T10:52:49.661Z,23.50
2018-06-08T10:55:17.724Z,23.70
2018-06-08T10:57:45.621Z,23.90
2018-06-08T11:00:13.623Z,24.10
2018-06-08T11:05:09.389Z,24.60
2018-06-08T11:07:37.353Z,24.70
2018-06-08T11:10:05.618Z,24.80
2018-06-08T11:12:33.503Z,24.80
2018-06-08T11:15:01.404Z,24.90
2018-06-08T11:17:29.905Z,24.90
2018-06-08T11:19:57.830Z,24.80
2018-06-08T11:22:26.197Z,24.70
2018-06-08T11:24:54.083Z,24.90
2018-06-08T11:27:22.302Z,25.10
2018-06-08T11:32:18.783Z,25.40
2018-06-08T11:34:47.346Z,25.40
2018-06-08T11:39:43.303Z,25.30
2018-06-08T11:42:11.371Z,25.30
2018-06-08T11:47:07.877Z,25.20
2018-06-08T11:52:05.860Z,25.50
2018-06-08T11:54:34.253Z,25.60
2018-06-08T11:57:02.343Z,25.70
2018-06-08T12:01:58.944Z,25.90
2018-06-08T12:04:26.985Z,26.00
2018-06-08T12:06:55.549Z,26.20
2018-06-08T12:09:24.087Z,26.20
2018-06-08T12:11:52.151Z,26.40
2018-06-08T12:14:20.158Z,26.50
2018-06-08T12:16:48.846Z,26.70
2018-06-08T12:19:16.793Z,26.90
2018-06-08T12:21:44.745Z,27.00
2018-06-08T12:24:12.671Z,27.00
2018-06-08T12:29:08.628Z,26.40
2018-06-08T12:31:37.524Z,26.50
2018-06-08T12:34:05.695Z,26.20
2018-06-08T12:43:57.120Z,26.20
2018-06-08T12:46:25.011Z,26.50
2018-06-08T12:48:53.127Z,26.50
2018-06-08T12:51:21.779Z,26.60
2018-06-08T12:56:17.635Z,26.50
2018-06-08T12:58:46.221Z,26.60
2018-06-08T13:03:41.829Z,26.70
2018-06-08T13:11:06.071Z,26.90
2018-06-08T13:13:34.445Z,27.20
2018-06-08T13:16:02.314Z,27.40
2018-06-08T13:18:30.289Z,27.40
2018-06-08T13:20:58.395Z,27.60
2018-06-08T13:23:26.748Z,27.50
2018-06-08T13:25:54.654Z,27.60
2018-06-08T13:28:22.574Z,27.70
2018-06-08T13:30:50.479Z,27.70
2018-06-08T13:33:18.355Z,27.80
2018-06-08T13:35:47.042Z,27.80
2018-06-08T13:38:14.949Z,27.40
2018-06-08T13:40:42.841Z,27.50
2018-06-08T13:43:11.210Z,27.30
2018-06-08T13:45:40.004Z,27.30
2018-06-08T13:48:08.004Z,27.50
2018-06-08T13:50:36.066Z,27.60
2018-06-08T13:53:03.976Z,27.70
2018-06-08T13:55:32.103Z,27.70
2018-06-08T13:57:59.970Z,27.70
2018-06-08T14:00:27.815Z,27.80
2018-06-08T14:02:55.700Z,27.80
2018-06-08T14:05:23.845Z,27.80
2018-06-08T14:07:52.438Z,27.60
2018-06-08T14:10:20.354Z,27.70
2018-06-08T14:12:48.304Z,27.60
2018-06-08T14:15:16.214Z,27.70
2018-06-08T14:22:40.226Z,27.70
2018-06-08T14:25:08.366Z,27.80
2018-06-08T14:27:36.265Z,27.90
2018-06-08T14:30:04.586Z,27.90
2018-06-08T14:32:32.468Z,27.90
2018-06-08T14:35:00.382Z,27.80
2018-06-08T14:42:24.678Z,28.00
2018-06-08T14:44:52.747Z,28.00
2018-06-08T14:47:21.178Z,28.10
2018-06-08T14:49:49.069Z,28.10
2018-06-08T14:52:16.989Z,28.30
2018-06-08T14:57:12.593Z,28.30
2018-06-08T14:59:40.814Z,28.30
2018-06-08T15:02:09.182Z,28.10
2018-06-08T15:04:37.133Z,28.20
2018-06-08T15:07:05.116Z,28.30
2018-06-08T15:12:02.100Z,28.30
2018-06-08T15:14:29.985Z,28.30
2018-06-08T15:16:58.102Z,28.30
2018-06-08T15:21:53.722Z,28.50
2018-06-08T15:24:21.640Z,28.60
2018-06-08T15:26:49.665Z,28.60
2018-06-08T15:29:17.551Z,28.70
2018-06-08T15:34:13.700Z,28.80
2018-06-08T15:36:41.569Z,28.80
2018-06-08T15:41:37.186Z,29.00
2018-06-08T15:44:05.693Z,28.90
2018-06-08T15:49:01.337Z,28.70
2018-06-08T15:51:29.205Z,28.70
2018-06-08T15:53:57.113Z,28.80
2018-06-08T15:56:25.014Z,28.80
2018-06-08T15:58:53.348Z,28.80
2018-06-08T16:01:21.206Z,28.80
2018-06-08T16:03:49.079Z,28.70
2018-06-08T16:06:16.988Z,28.80
2018-06-08T16:11:12.638Z,28.70
2018-06-08T16:16:08.260Z,28.40
2018-06-08T16:18:36.104Z,28.40
2018-06-08T16:21:03.995Z,28.50
2018-06-08T16:25:59.845Z,29.10
2018-06-08T16:30:55.504Z,28.80
2018-06-08T16:33:24.051Z,28.70
2018-06-08T16:40:48.131Z,28.20
2018-06-08T16:43:16.576Z,28.10
2018-06-08T16:45:44.434Z,28.10
2018-06-08T16:48:12.361Z,28.10
2018-06-08T16:50:40.419Z,28.00
2018-06-08T16:53:09.034Z,27.90
2018-06-08T16:58:05.505Z,28.20
2018-06-08T17:00:33.447Z,28.10
2018-06-08T17:03:01.312Z,28.00
2018-06-08T17:05:29.169Z,27.90
2018-06-08T17:07:57.044Z,27.90
2018-06-08T17:10:25.086Z,27.90
2018-06-08T17:12:52.986Z,27.80
2018-06-08T17:15:20.846Z,27.80
2018-06-08T17:17:48.725Z,27.80
2018-06-08T17:20:17.638Z,27.90
2018-06-08T17:25:14.027Z,27.80
2018-06-08T17:27:42.765Z,27.70
2018-06-08T17:35:06.993Z,27.50
2018-06-08T17:40:02.734Z,27.50
2018-06-08T17:42:30.629Z,27.60
2018-06-08T17:44:58.511Z,27.50
2018-06-08T17:47:26.863Z,27.50
2018-06-08T17:49:55.419Z,27.50
2018-06-08T17:52:23.703Z,27.40
2018-06-08T17:54:52.178Z,27.30
2018-06-08T17:59:48.356Z,27.10
2018-06-08T18:02:16.574Z,27.10
2018-06-08T18:04:44.517Z,27.20
2018-06-08T18:07:12.406Z,27.10
2018-06-08T18:09:40.274Z,27.10
2018-06-08T18:12:08.514Z,27.10
2018-06-08T18:14:36.887Z,27.10
2018-06-08T18:17:04.766Z,27.00
2018-06-08T18:19:32.649Z,27.00
2018-06-08T18:22:00.535Z,27.00
2018-06-08T18:24:28.434Z,26.90
2018-06-08T18:26:56.334Z,26.90
2018-06-08T18:29:24.818Z,26.80
2018-06-08T18:31:52.750Z,26.80
2018-06-08T18:36:48.390Z,26.60
2018-06-08T18:39:16.316Z,26.60
2018-06-08T18:41:44.464Z,26.60
2018-06-08T18:44:12.373Z,26.50
2018-06-08T18:46:41.902Z,26.40
2018-06-08T18:49:10.093Z,26.40
2018-06-08T18:51:38.046Z,26.20
2018-06-08T18:54:06.913Z,26.20
2018-06-08T18:56:34.851Z,26.10
2018-06-08T18:59:02.800Z,25.90
2018-06-08T19:01:30.878Z,26.00
2018-06-08T19:03:58.851Z,25.90
2018-06-08T19:06:27.399Z,25.80
2018-06-08T19:08:55.908Z,25.80
2018-06-08T19:11:24.264Z,25.70
2018-06-08T19:13:52.266Z,25.70
2018-06-08T19:16:20.291Z,25.80
2018-06-08T19:18:48.200Z,25.60
2018-06-08T19:21:16.448Z,25.60
2018-06-08T19:23:44.488Z,25.50
2018-06-08T19:26:12.438Z,25.40
2018-06-08T19:31:08.386Z,25.30
2018-06-08T19:33:36.391Z,25.30
2018-06-08T19:36:04.906Z,25.30
2018-06-08T19:38:33.041Z,25.20
2018-06-08T19:41:01.188Z,25.10
2018-06-08T19:43:29.268Z,25.10
2018-06-08T19:48:25.076Z,24.90
2018-06-08T19:50:52.957Z,24.80
2018-06-08T19:53:21.904Z,24.80
2018-06-08T19:55:50.795Z,24.70
2018-06-08T19:58:18.823Z,24.70
2018-06-08T20:05:42.247Z,24.60
2018-06-08T20:08:10.279Z,24.50
2018-06-08T20:10:38.161Z,24.50
2018-06-08T20:15:34.454Z,24.40
2018-06-08T20:18:02.361Z,24.50
2018-06-08T20:20:30.664Z,24.50
2018-06-08T20:22:58.565Z,24.40
2018-06-08T20:25:26.448Z,24.30
2018-06-08T20:30:22.434Z,24.20
2018-06-08T20:32:50.452Z,24.20
2018-06-08T20:35:18.367Z,24.20
2018-06-08T20:42:41.821Z,24.10
2018-06-08T20:45:09.758Z,24.10
2018-06-08T20:47:37.687Z,24.10
2018-06-08T20:50:06.259Z,24.10
2018-06-08T20:52:34.282Z,24.10
2018-06-08T20:55:02.163Z,24.00
2018-06-08T20:57:30.055Z,23.90
2018-06-08T20:59:57.923Z,23.80
2018-06-08T21:02:25.933Z,23.70
2018-06-08T21:04:54.713Z,23.80
2018-06-08T21:07:22.706Z,23.70
2018-06-08T21:09:51.463Z,23.60
2018-06-08T21:12:19.368Z,23.60
2018-06-08T21:14:47.286Z,23.50
2018-06-08T21:17:15.378Z,23.50
2018-06-08T21:24:39.146Z,23.50
2018-06-08T21:27:07.066Z,23.40
2018-06-08T21:29:34.945Z,23.30
2018-06-08T21:32:02.918Z,23.30
2018-06-08T21:34:31.782Z,23.20
2018-06-08T21:39:27.430Z,23.30
2018-06-08T21:44:23.217Z,23.30
2018-06-08T21:46:51.198Z,23.20
2018-06-08T21:49:19.078Z,23.30
2018-06-08T21:54:14.698Z,23.30
2018-06-08T21:56:42.883Z,23.20
2018-06-08T21:59:11.535Z,23.30
2018-06-08T22:01:39.512Z,23.30
2018-06-08T22:04:07.482Z,23.30
2018-06-08T22:06:35.384Z,23.40
2018-06-08T22:09:05.521Z,23.30
2018-06-08T22:11:34.347Z,23.30
2018-06-08T22:14:02.564Z,23.30
2018-06-08T22:16:30.459Z,23.30
2018-06-08T22:18:58.344Z,23.40
2018-06-08T22:21:26.919Z,23.30
2018-06-08T22:23:55.085Z,23.30
2018-06-08T22:26:23.014Z,23.30
2018-06-08T22:28:51.207Z,23.30
2018-06-08T22:31:19.351Z,23.30
2018-06-08T22:33:47.236Z,23.20
2018-06-08T22:38:42.983Z,23.10
2018-06-08T22:43:38.642Z,23.10
2018-06-08T22:46:06.499Z,23.20
2018-06-08T22:48:34.381Z,23.20
2018-06-08T22:51:02.395Z,23.20
2018-06-08T22:53:30.270Z,23.10
2018-06-08T22:55:58.210Z,23.30
2018-06-08T22:58:26.104Z,23.10
2018-06-08T23:00:54.529Z,23.10
2018-06-08T23:03:22.439Z,23.20
2018-06-08T23:05:50.327Z,23.10
2018-06-08T23:08:18.211Z,23.20
2018-06-08T23:15:42.639Z,22.90
2018-06-08T23:20:38.455Z,22.90
2018-06-08T23:25:34.188Z,23.00
2018-06-08T23:30:29.864Z,22.90
2018-06-08T23:32:58.114Z,22.90
2018-06-08T23:35:26.658Z,23.00
2018-06-08T23:37:54.520Z,23.10
2018-06-08T23:40:22.377Z,23.00
2018-06-08T23:42:50.246Z,23.00
2018-06-08T23:45:18.112Z,23.00
2018-06-08T23:47:46.011Z,23.10
2018-06-08T23:52:41.855Z,23.10
2018-06-08T23:55:09.914Z,23.10
2018-06-08T23:57:37.764Z,23.10
